Time;durP1;ratioP1;P1;durP2;ratioP2;P2;SDS_P1;SDS_P2;PMS_P1;PMS_P2;Temp;Humidity;BMP_temperature;BMP_pressure;BME280_temperature;BME280_humidity;BME280_pressure;Samples;Min_cycle;Max_cycle;Signal;HPM_P1;HPM_P2
2022/04/01 00:00:49;;;;;;;5.87;1.13;;;18.70;99.90;;;;;;5072373;28;20238;-67
2022/04/01 00:03:17;;;;;;;2.40;0.90;;;18.50;99.90;;;;;;5072590;28;20191;-68
2022/04/01 00:05:44;;;;;;;5.20;1.30;;;18.40;99.90;;;;;;5072538;28;20175;-67
2022/04/01 00:08:12;;;;;;;2.53;0.87;;;18.70;99.90;;;;;;5071388;28;20177;-68
2022/04/01 00:10:39;;;;;;;0.97;0.50;;;18.70;99.90;;;;;;5071383;28;20229;-68
2022/04/01 00:13:07;;;;;;;1.77;0.60;;;18.80;99.90;;;;;;5072553;28;20191;-68
2022/04/01 00:15:35;;;;;;;2.43;0.60;;;18.90;99.90;;;;;;5072338;28;20723;-68
2022/04/01 00:18:03;;;;;;;2.63;0.70;;;19.20;99.90;;;;;;5072438;28;20236;-68
2022/04/01 00:20:31;;;;;;;1.90;0.87;;;19.40;99.90;;;;;;5072261;28;20219;-68
2022/04/01 00:22:59;;;;;;;2.67;0.90;;;19.60;99.90;;;;;;5072373;28;20176;-68
2022/04/01 00:25:26;;;;;;;4.43;0.53;;;19.80;99.90;;;;;;5072083;28;20195;-68
2022/04/01 00:27:54;;;;;;;0.93;0.47;;;19.90;99.90;;;;;;5072278;28;20190;-67
2022/04/01 00:30:22;;;;;;;2.40;0.70;;;19.50;99.90;;;;;;5072298;28;20179;-68
2022/04/01 00:32:49;;;;;;;1.87;0.50;;;19.30;99.90;;;;;;5071796;28;20191;-68
2022/04/01 00:35:16;;;;;;;0.97;0.50;;;19.50;99.90;;;;;;5072790;28;20218;-69
2022/04/01 00:37:44;;;;;;;1.77;0.60;;;19.70;99.90;;;;;;5072281;28;20618;-68
2022/04/01 00:40:12;;;;;;;2.03;0.80;;;20.20;99.90;;;;;;5074743;28;20254;-68
2022/04/01 00:42:41;;;;;;;2.07;0.43;;;20.10;99.90;;;;;;5073526;28;20187;-67
2022/04/01 00:45:10;;;;;;;2.13;0.60;;;20.00;99.90;;;;;;5073820;28;20190;-67
2022/04/01 00:47:38;;;;;;;5.43;0.77;;;20.00;99.90;;;;;;5074074;28;20180;-67
2022/04/01 00:50:07;;;;;;;1.80;0.60;;;19.60;99.90;;;;;;5075291;28;20179;-68
2022/04/01 00:52:36;;;;;;;3.70;0.70;;;19.40;99.90;;;;;;5071148;28;20180;-66
2022/04/01 00:55:08;;;;;;;1.17;0.67;;;19.50;99.90;;;;;;5070194;28;20230;-66
2022/04/01 00:57:37;;;;;;;0.50;0.47;;;19.30;99.90;;;;;;5071519;28;20184;-67
2022/04/01 01:00:06;;;;;;;1.27;0.40;;;19.20;99.90;;;;;;5071612;28;20216;-67
2022/04/01 01:02:34;;;;;;;2.97;0.53;;;19.20;99.90;;;;;;5070571;28;20559;-67
2022/04/01 01:05:03;;;;;;;2.13;0.60;;;19.20;99.90;;;;;;5071824;28;20207;-66
2022/04/01 01:07:31;;;;;;;1.57;0.50;;;19.10;99.90;;;;;;5071532;28;20196;-67
2022/04/01 01:09:59;;;;;;;2.30;0.60;;;19.10;99.90;;;;;;5071697;28;20186;-67
2022/04/01 01:12:28;;;;;;;1.13;0.53;;;19.20;99.90;;;;;;5071714;28;20187;-67
2022/04/01 01:14:55;;;;;;;2.27;0.57;;;19.20;99.90;;;;;;5071472;28;20385;-68
2022/04/01 01:17:22;;;;;;;1.07;0.50;;;19.10;99.90;;;;;;5071690;28;20277;-68
2022/04/01 01:19:50;;;;;;;0.60;0.60;;;19.00;99.90;;;;;;5071633;28;20288;-67
2022/04/01 01:22:17;;;;;;;0.87;0.50;;;19.20;99.90;;;;;;5076425;28;20187;-67
2022/04/01 01:24:45;;;;;;;1.80;0.50;;;19.30;99.90;;;;;;5078365;28;20233;-67
2022/04/01 01:27:15;;;;;;;0.50;0.50;;;19.40;99.90;;;;;;5078124;28;20262;-68
2022/04/01 01:29:45;;;;;;;0.43;0.40;;;19.40;99.90;;;;;;5062752;28;20553;-66
2022/04/01 01:32:19;;;;;;;0.60;0.40;;;19.40;99.90;;;;;;5058087;28;20187;-66
2022/04/01 01:34:46;;;;;;;0.73;0.40;;;19.20;99.90;;;;;;5058138;28;20261;-66
2022/04/01 01:37:14;;;;;;;3.20;1.03;;;19.40;99.90;;;;;;5063442;28;20676;-67
2022/04/01 01:39:42;;;;;;;0.73;0.40;;;19.70;99.90;;;;;;5077318;28;20261;-68
2022/04/01 01:42:10;;;;;;;1.33;0.40;;;19.50;99.90;;;;;;5078125;28;20179;-67
2022/04/01 01:44:38;;;;;;;1.37;0.40;;;19.50;99.90;;;;;;5078040;28;20195;-67
2022/04/01 01:47:06;;;;;;;1.07;0.50;;;19.40;99.90;;;;;;5077956;28;20222;-67
2022/04/01 01:49:33;;;;;;;2.17;0.30;;;19.50;99.90;;;;;;5078143;28;20178;-68
2022/04/01 01:54:49;;;;;;;1.40;0.40;;;19.50;99.90;;;;;;5078103;28;20183;-68
2022/04/01 01:57:20;;;;;;;0.93;0.40;;;19.40;99.90;;;;;;5077946;28;20556;-68
2022/04/01 01:59:48;;;;;;;0.97;0.50;;;19.60;99.90;;;;;;5077870;28;20191;-67
2022/04/01 02:02:17;;;;;;;1.03;0.37;;;19.90;99.90;;;;;;5077995;28;20183;-67
2022/04/01 02:04:49;;;;;;;0.53;0.40;;;20.20;99.90;;;;;;5077907;28;20651;-67
2022/04/01 02:07:18;;;;;;;0.97;0.50;;;20.00;99.90;;;;;;5076695;28;20591;-68
2022/04/01 02:09:46;;;;;;;1.07;0.47;;;20.00;99.90;;;;;;5077916;28;20273;-68
2022/04/01 02:12:16;;;;;;;1.07;0.43;;;20.10;99.90;;;;;;5077954;28;20179;-67
2022/04/01 02:14:43;;;;;;;1.83;0.40;;;20.00;99.90;;;;;;5077612;28;20237;-67
2022/04/01 02:17:10;;;;;;;2.93;0.40;;;20.10;99.90;;;;;;5078091;28;20233;-67
2022/04/01 02:19:38;;;;;;;0.73;0.50;;;20.10;99.90;;;;;;5077648;28;20225;-68
2022/04/01 02:22:05;;;;;;;1.20;0.50;;;20.10;99.90;;;;;;5077699;28;20175;-67
2022/04/01 02:24:33;;;;;;;0.30;0.30;;;19.80;99.90;;;;;;5077634;28;20211;-67
2022/04/01 02:27:01;;;;;;;2.97;0.90;;;19.90;99.90;;;;;;5077733;28;20184;-67
2022/04/01 02:29:29;;;;;;;2.20;0.60;;;19.90;99.90;;;;;;5076777;28;20176;-67
2022/04/01 02:31:57;;;;;;;2.73;0.50;;;19.80;99.90;;;;;;5070427;28;20237;-67
2022/04/01 02:34:25;;;;;;;2.00;0.60;;;19.60;99.90;;;;;;5060999;28;20200;-67
2022/04/01 02:36:57;;;;;;;2.27;0.37;;;19.50;99.90;;;;;;5055912;28;20184;-68
2022/04/01 02:39:25;;;;;;;1.50;0.50;;;19.60;99.90;;;;;;5073790;28;20761;-67
2022/04/01 02:41:52;;;;;;;1.83;0.40;;;19.70;99.90;;;;;;5073991;28;20563;-67
2022/04/01 02:44:20;;;;;;;1.33;0.50;;;19.70;99.90;;;;;;5073895;28;20271;-67
2022/04/01 02:46:47;;;;;;;1.03;0.47;;;19.80;99.90;;;;;;5073849;28;20297;-68
2022/04/01 02:49:19;;;;;;;0.47;0.40;;;19.60;99.90;;;;;;5074256;28;20176;-67
2022/04/01 02:51:48;;;;;;;0.97;0.50;;;19.50;99.90;;;;;;5073519;28;20190;-67
2022/04/01 02:54:16;;;;;;;1.63;0.50;;;19.40;99.90;;;;;;5073815;28;20219;-67
2022/04/01 02:56:43;;;;;;;0.60;0.30;;;19.50;99.90;;;;;;5074093;28;20180;-66
2022/04/01 02:59:11;;;;;;;0.60;0.60;;;19.60;99.90;;;;;;5072609;28;20235;-68
2022/04/01 03:01:41;;;;;;;2.97;0.63;;;19.70;99.90;;;;;;5074094;28;20614;-68
2022/04/01 03:04:10;;;;;;;2.77;0.63;;;19.60;99.90;;;;;;5073795;28;20184;-67
2022/04/01 03:06:43;;;;;;;2.67;0.50;;;19.30;99.90;;;;;;5072445;28;20184;-68
2022/04/01 03:09:14;;;;;;;1.97;0.60;;;19.40;99.90;;;;;;5073197;28;20199;-68
2022/04/01 03:11:42;;;;;;;3.00;0.70;;;19.30;99.90;;;;;;5073495;28;20179;-68
2022/04/01 03:14:11;;;;;;;1.47;0.87;;;19.40;99.90;;;;;;5073533;28;20266;-68
2022/04/01 03:16:43;;;;;;;1.23;1.10;;;19.60;99.90;;;;;;5073490;28;20196;-68
2022/04/01 03:19:10;;;;;;;3.40;0.77;;;19.70;99.90;;;;;;5074064;28;20236;-69
2022/04/01 03:21:41;;;;;;;3.03;0.70;;;19.70;99.90;;;;;;5073756;28;20215;-67
2022/04/01 03:24:10;;;;;;;3.27;0.87;;;19.70;99.90;;;;;;5073264;28;20708;-67
2022/04/01 03:26:38;;;;;;;3.37;0.87;;;19.70;99.90;;;;;;5073587;28;20188;-67
2022/04/01 03:29:10;;;;;;;3.73;0.83;;;19.80;99.90;;;;;;5073440;28;20687;-67
2022/04/01 03:31:38;;;;;;;1.53;0.70;;;20.00;99.90;;;;;;5073499;28;20176;-69
2022/04/01 03:34:07;;;;;;;1.43;0.60;;;20.00;99.90;;;;;;5073586;28;20676;-69
2022/04/01 03:36:34;;;;;;;3.57;1.00;;;19.80;99.90;;;;;;5071789;28;20172;-68
2022/04/01 03:39:03;;;;;;;2.93;0.50;;;20.00;99.90;;;;;;5072655;28;20195;-68
2022/04/01 03:41:31;;;;;;;4.17;0.80;;;20.30;99.90;;;;;;5073316;28;20186;-67
2022/04/01 03:44:00;;;;;;;3.23;0.90;;;20.20;99.90;;;;;;5072878;28;20583;-67
2022/04/01 03:46:39;;;;;;;1.97;0.50;;;19.90;99.90;;;;;;5071456;28;20180;-67
2022/04/01 03:49:07;;;;;;;2.40;0.70;;;19.80;99.90;;;;;;5072561;28;20262;-67
2022/04/01 03:51:38;;;;;;;4.10;1.00;;;19.60;99.90;;;;;;5072817;28;20716;-67
2022/04/01 03:54:06;;;;;;;3.90;1.17;;;19.50;99.90;;;;;;5072637;28;20176;-68
2022/04/01 03:56:36;;;;;;;2.77;0.87;;;19.50;99.90;;;;;;5072847;28;20180;-68
2022/04/01 03:59:06;;;;;;;2.97;0.97;;;19.40;99.90;;;;;;5072046;28;20238;-68
2022/04/01 04:01:36;;;;;;;3.90;0.90;;;19.40;99.90;;;;;;5070326;28;20203;-67
2022/04/01 04:04:05;;;;;;;2.50;0.80;;;19.40;99.90;;;;;;5072422;28;20177;-68
2022/04/01 04:06:37;;;;;;;3.80;1.30;;;19.40;99.90;;;;;;5072088;28;20180;-69
2022/04/01 04:09:05;;;;;;;4.80;1.47;;;19.40;99.90;;;;;;5072256;28;20234;-69
2022/04/01 04:11:33;;;;;;;3.67;1.03;;;19.50;99.90;;;;;;5072748;28;20209;-68
2022/04/01 04:14:03;;;;;;;3.10;1.00;;;19.50;99.90;;;;;;5071945;28;20304;-68
2022/04/01 04:16:39;;;;;;;5.17;1.20;;;19.40;99.90;;;;;;5072180;28;20305;-69
2022/04/01 04:19:19;;;;;;;4.03;1.00;;;19.40;99.90;;;;;;5072085;28;20204;-68
2022/04/01 04:22:18;;;;;;;5.00;1.00;;;19.30;99.90;;;;;;5072556;28;20654;-68
2022/04/01 04:24:58;;;;;;;5.43;0.83;;;19.50;99.90;;;;;;5067474;28;20666;-68
2022/04/01 04:27:29;;;;;;;2.00;0.80;;;19.50;99.90;;;;;;5071953;28;20179;-68
2022/04/01 04:30:08;;;;;;;1.83;0.73;;;19.60;99.90;;;;;;5071760;28;20184;-68
2022/04/01 04:32:39;;;;;;;4.00;1.00;;;19.60;99.90;;;;;;5070508;28;20187;-67
2022/04/01 04:35:09;;;;;;;4.50;1.00;;;19.60;99.90;;;;;;5072260;28;20184;-67
2022/04/01 04:37:44;;;;;;;4.80;1.43;;;19.60;99.90;;;;;;5071248;28;20634;-68
2022/04/01 04:40:12;;;;;;;1.70;0.80;;;19.70;99.90;;;;;;5063159;28;20218;-68
2022/04/01 04:42:53;;;;;;;4.67;0.87;;;19.60;99.90;;;;;;5069577;28;20190;-68
2022/04/01 04:45:22;;;;;;;4.97;1.00;;;19.50;99.90;;;;;;5071922;28;20191;-68
2022/04/01 04:47:50;;;;;;;4.43;0.90;;;19.30;99.90;;;;;;5070736;28;20188;-68
2022/04/01 04:50:18;;;;;;;4.40;1.13;;;19.40;99.90;;;;;;5072117;28;20180;-68
2022/04/01 04:52:51;;;;;;;5.73;1.23;;;19.40;99.90;;;;;;5072018;28;20184;-68
2022/04/01 04:55:19;;;;;;;3.10;1.03;;;19.40;99.90;;;;;;5072072;28;20180;-69
2022/04/01 04:57:48;;;;;;;3.93;0.93;;;19.40;99.90;;;;;;5070106;28;20715;-69
2022/04/01 05:00:21;;;;;;;3.93;1.10;;;19.60;99.90;;;;;;5071880;28;20301;-69
2022/04/01 05:03:24;;;;;;;2.17;0.87;;;19.70;99.90;;;;;;5071533;28;20578;-68
2022/04/01 05:05:54;;;;;;;4.50;0.90;;;19.70;99.90;;;;;;5070571;28;20179;-68
2022/04/01 05:08:50;;;;;;;3.63;0.97;;;19.50;99.90;;;;;;5071595;28;20192;-68
2022/04/01 05:11:41;;;;;;;5.40;1.20;;;19.50;99.90;;;;;;5072036;28;20194;-68
2022/04/01 05:14:11;;;;;;;6.03;1.20;;;19.50;99.90;;;;;;5071503;28;20265;-68
2022/04/01 05:16:59;;;;;;;4.87;0.70;;;19.50;99.90;;;;;;5071310;28;20198;-68
2022/04/01 05:19:28;;;;;;;6.20;1.03;;;19.60;99.90;;;;;;5071327;28;20237;-68
2022/04/01 05:22:04;;;;;;;4.33;1.70;;;19.90;99.90;;;;;;5071833;28;20642;-68
2022/04/01 05:24:38;;;;;;;4.47;1.20;;;20.20;99.90;;;;;;5071653;28;20706;-68
2022/04/01 05:27:18;;;;;;;7.07;1.40;;;19.80;99.90;;;;;;5071238;28;20212;-67
2022/04/01 05:29:47;;;;;;;5.27;1.43;;;19.50;99.90;;;;;;5071746;28;20190;-68
2022/04/01 05:32:21;;;;;;;5.27;1.27;;;19.40;99.90;;;;;;5071827;28;20183;-69
2022/04/01 05:34:51;;;;;;;7.13;1.37;;;19.40;99.90;;;;;;5069688;28;20178;-67
2022/04/01 05:37:18;;;;;;;2.57;1.13;;;19.60;99.90;;;;;;5071675;28;20179;-68
2022/04/01 05:39:47;;;;;;;6.23;1.10;;;19.50;99.90;;;;;;5071379;28;20676;-68
2022/04/01 05:42:18;;;;;;;3.93;1.20;;;19.50;99.90;;;;;;5071602;28;20206;-68
2022/04/01 05:44:46;;;;;;;4.00;1.10;;;19.40;99.90;;;;;;5071620;28;20665;-68
2022/04/01 05:47:14;;;;;;;5.53;1.60;;;19.30;99.90;;;;;;5071641;28;20203;-68
2022/04/01 05:49:44;;;;;;;2.50;1.10;;;19.10;99.90;;;;;;5071520;28;20172;-68
2022/04/01 05:52:12;;;;;;;6.47;1.30;;;19.00;99.90;;;;;;5070737;28;20720;-69
2022/04/01 05:54:41;;;;;;;8.67;1.53;;;19.00;99.90;;;;;;5069514;28;20210;-67
2022/04/01 05:57:10;;;;;;;4.77;1.10;;;19.00;99.90;;;;;;5069450;28;20554;-68
2022/04/01 05:59:38;;;;;;;4.60;1.00;;;19.10;99.90;;;;;;5069465;28;20689;-68
2022/04/01 06:02:22;;;;;;;8.90;1.83;;;19.20;99.90;;;;;;5068702;28;20309;-68
2022/04/01 06:05:07;;;;;;;4.53;1.40;;;19.20;99.90;;;;;;5069546;28;20195;-69
2022/04/01 06:07:51;;;;;;;4.93;1.10;;;19.10;99.90;;;;;;5069616;28;20179;-68
2022/04/01 06:10:54;;;;;;;14.20;1.77;;;18.90;99.90;;;;;;5074628;28;20213;-68
2022/04/01 06:13:40;;;;;;;4.97;1.20;;;18.90;99.90;;;;;;5074635;28;20190;-69
2022/04/01 06:16:34;;;;;;;3.23;1.07;;;19.10;99.90;;;;;;5074941;28;20207;-68
2022/04/01 06:19:17;;;;;;;6.73;1.37;;;19.10;99.90;;;;;;5074431;28;20176;-67
2022/04/01 06:21:49;;;;;;;10.37;2.20;;;19.00;99.90;;;;;;5074498;28;20189;-67
2022/04/01 06:24:43;;;;;;;5.40;1.30;;;18.90;99.90;;;;;;5074828;28;20286;-68
2022/04/01 06:27:14;;;;;;;6.17;1.83;;;19.00;99.90;;;;;;5074495;28;20665;-67
2022/04/01 06:29:50;;;;;;;7.83;1.17;;;19.00;99.90;;;;;;5074747;28;20596;-68
2022/04/01 06:32:40;;;;;;;10.00;1.50;;;19.00;99.90;;;;;;5074304;28;20546;-69
2022/04/01 06:35:20;;;;;;;7.37;1.80;;;18.90;99.90;;;;;;5074304;28;20180;-69
2022/04/01 06:38:03;;;;;;;4.47;1.40;;;18.90;99.90;;;;;;5072658;28;20176;-68
2022/04/01 06:40:39;;;;;;;8.83;1.60;;;18.80;99.90;;;;;;5072942;28;20370;-68
2022/04/01 06:43:07;;;;;;;9.90;2.13;;;18.80;99.90;;;;;;5067062;28;20567;-68
2022/04/01 06:45:34;;;;;;;6.20;1.63;;;18.80;99.90;;;;;;5074288;28;20184;-69
2022/04/01 06:48:01;;;;;;;6.73;1.57;;;18.80;99.90;;;;;;5074304;28;20306;-68
2022/04/01 06:50:28;;;;;;;6.30;1.90;;;18.70;99.90;;;;;;5074308;28;20199;-68
2022/04/01 06:52:56;;;;;;;6.33;1.90;;;18.80;99.90;;;;;;5073788;28;20230;-68
2022/04/01 06:55:23;;;;;;;4.00;1.40;;;18.70;99.90;;;;;;5074093;28;20168;-69
2022/04/01 06:57:52;;;;;;;7.20;1.60;;;18.70;99.90;;;;;;5073487;28;20184;-68
2022/04/01 07:00:20;;;;;;;8.83;2.17;;;18.70;99.90;;;;;;5073912;28;20215;-68
2022/04/01 07:02:49;;;;;;;6.60;1.70;;;18.70;99.90;;;;;;5070648;28;20219;-68
2022/04/01 07:05:16;;;;;;;6.13;1.43;;;18.80;99.90;;;;;;5073581;28;20184;-69
2022/04/01 07:07:44;;;;;;;11.60;2.33;;;18.70;99.90;;;;;;5073518;28;20529;-69
2022/04/01 07:10:15;;;;;;;11.90;2.00;;;18.70;99.90;;;;;;5074026;28;20178;-68
2022/04/01 07:12:42;;;;;;;5.13;1.93;;;18.60;99.90;;;;;;5073536;28;20180;-69
2022/04/01 07:15:13;;;;;;;6.17;1.47;;;18.60;99.90;;;;;;5073606;28;20265;-68
2022/04/01 07:17:40;;;;;;;5.13;1.43;;;18.60;99.90;;;;;;5073758;28;20176;-69
2022/04/01 07:20:08;;;;;;;6.23;1.80;;;18.50;99.90;;;;;;5073303;28;20215;-69
2022/04/01 07:22:36;;;;;;;5.27;1.90;;;18.50;99.90;;;;;;5073214;28;20542;-68
2022/04/01 07:25:03;;;;;;;7.90;1.80;;;18.40;99.90;;;;;;5073696;28;20229;-69
2022/04/01 07:27:30;;;;;;;4.63;1.53;;;18.30;99.90;;;;;;5073606;28;20177;-69
2022/04/01 07:29:58;;;;;;;5.27;1.77;;;18.30;99.90;;;;;;5071974;28;20225;-69
2022/04/01 07:32:33;;;;;;;9.40;1.87;;;18.20;99.90;;;;;;5073209;28;20173;-68
2022/04/01 07:35:03;;;;;;;5.07;1.60;;;18.20;99.90;;;;;;5073583;28;20272;-69
2022/04/01 07:37:31;;;;;;;7.30;1.67;;;18.20;99.90;;;;;;5073312;28;20186;-69
2022/04/01 07:39:59;;;;;;;5.43;1.53;;;18.10;99.90;;;;;;5073030;28;20269;-69
2022/04/01 07:42:28;;;;;;;6.70;1.50;;;18.00;99.90;;;;;;5072795;28;20184;-69
2022/04/01 07:44:56;;;;;;;6.13;1.10;;;18.00;99.90;;;;;;5072856;28;20180;-69
2022/04/01 07:47:24;;;;;;;3.97;1.23;;;18.00;99.90;;;;;;5072745;28;20641;-69
2022/04/01 07:49:52;;;;;;;6.57;1.20;;;18.00;99.90;;;;;;5071606;28;20344;-67
2022/04/01 07:52:22;;;;;;;5.27;1.40;;;18.00;99.90;;;;;;5069701;28;20602;-68
2022/04/01 07:54:52;;;;;;;6.10;1.20;;;17.90;99.90;;;;;;5072044;28;20180;-67
2022/04/01 07:57:20;;;;;;;5.73;2.20;;;17.90;99.90;;;;;;5071874;28;20382;-68
2022/04/01 07:59:48;;;;;;;6.30;1.30;;;17.80;99.90;;;;;;5072681;28;20227;-68
2022/04/01 08:02:16;;;;;;;4.47;1.50;;;17.80;99.90;;;;;;5071423;28;20191;-68
2022/04/01 08:04:44;;;;;;;5.33;1.17;;;17.80;99.90;;;;;;5071936;28;20188;-68
2022/04/01 08:07:12;;;;;;;9.03;1.70;;;17.90;99.90;;;;;;5071334;28;20278;-68
2022/04/01 08:09:39;;;;;;;6.80;1.57;;;17.90;99.90;;;;;;5071286;28;20702;-68
2022/04/01 08:12:08;;;;;;;7.37;1.90;;;17.80;99.90;;;;;;5072670;28;20585;-68
2022/04/01 08:14:37;;;;;;;9.93;1.63;;;17.70;99.90;;;;;;5071820;28;20239;-68
2022/04/01 08:17:06;;;;;;;5.60;1.60;;;17.60;99.90;;;;;;5069958;28;20203;-68
2022/04/01 08:19:34;;;;;;;5.70;1.90;;;17.60;99.90;;;;;;5071947;28;20243;-67
2022/04/01 08:22:01;;;;;;;5.90;1.17;;;17.70;99.90;;;;;;5072227;28;20183;-69
2022/04/01 08:24:29;;;;;;;3.30;1.60;;;17.60;99.90;;;;;;5071396;28;20588;-68
2022/04/01 08:26:59;;;;;;;7.03;1.77;;;17.60;99.90;;;;;;5072533;28;20180;-69
2022/04/01 08:29:27;;;;;;;5.50;1.40;;;17.60;99.90;;;;;;5071070;28;20190;-68
2022/04/01 08:31:57;;;;;;;5.03;1.47;;;17.60;99.90;;;;;;5071150;28;20191;-67
2022/04/01 08:34:25;;;;;;;4.47;1.60;;;17.60;99.90;;;;;;5069628;28;20645;-67
2022/04/01 08:36:52;;;;;;;7.87;1.50;;;17.50;99.90;;;;;;5072208;28;20649;-68
2022/04/01 08:39:24;;;;;;;4.07;1.47;;;17.50;99.90;;;;;;5072808;28;20257;-68
2022/04/01 08:41:51;;;;;;;7.10;1.67;;;17.60;99.90;;;;;;5072129;28;20176;-68
2022/04/01 08:44:19;;;;;;;10.87;1.40;;;17.60;99.90;;;;;;5072372;28;20650;-68
2022/04/01 08:46:46;;;;;;;11.27;1.63;;;17.60;99.90;;;;;;5072116;28;20179;-68
2022/04/01 08:49:13;;;;;;;5.70;1.00;;;17.60;99.90;;;;;;5072216;28;20649;-68
2022/04/01 08:51:44;;;;;;;6.50;1.90;;;17.60;99.90;;;;;;5072242;28;20184;-68
2022/04/01 08:54:11;;;;;;;6.80;1.53;;;17.70;99.90;;;;;;5072302;28;20584;-66
2022/04/01 08:56:38;;;;;;;6.63;2.00;;;17.60;99.90;;;;;;5072051;28;20258;-67
2022/04/01 08:59:06;;;;;;;10.53;2.07;;;17.50;99.90;;;;;;5071736;28;20713;-68
2022/04/01 09:01:46;;;;;;;7.00;1.53;;;17.50;99.90;;;;;;5071708;28;20200;-67
2022/04/01 09:04:21;;;;;;;7.80;1.73;;;17.50;99.90;;;;;;5070751;28;20180;-67
2022/04/01 09:06:52;;;;;;;8.63;1.73;;;17.40;99.90;;;;;;5071703;28;20180;-68
2022/04/01 09:09:25;;;;;;;6.37;1.70;;;17.40;99.90;;;;;;5071831;28;20187;-68
2022/04/01 09:12:11;;;;;;;6.70;1.30;;;17.40;99.90;;;;;;5071885;28;20183;-68
2022/04/01 09:14:40;;;;;;;6.07;1.70;;;17.30;99.90;;;;;;5071576;28;20581;-69
2022/04/01 09:17:10;;;;;;;6.73;1.73;;;17.20;99.90;;;;;;5072929;28;20215;-69
2022/04/01 09:19:39;;;;;;;7.30;1.73;;;17.30;99.90;;;;;;5072333;28;20195;-69
2022/04/01 09:22:21;;;;;;;7.87;1.93;;;17.20;99.90;;;;;;5073370;28;20182;-68
2022/04/01 09:25:04;;;;;;;7.93;1.33;;;17.30;99.90;;;;;;5073250;28;20168;-70
2022/04/01 09:27:52;;;;;;;7.80;1.70;;;17.30;99.90;;;;;;5072793;28;20599;-68
2022/04/01 09:30:22;;;;;;;4.03;1.37;;;17.30;99.90;;;;;;5072930;28;20657;-68
2022/04/01 09:32:53;;;;;;;6.30;1.90;;;17.30;99.90;;;;;;5072893;28;20269;-69
2022/04/01 09:35:24;;;;;;;7.17;1.50;;;17.20;99.90;;;;;;5072511;28;20581;-69
2022/04/01 09:37:59;;;;;;;8.77;1.60;;;17.20;99.90;;;;;;5072644;28;20176;-69
2022/04/01 09:40:27;;;;;;;6.60;1.70;;;17.10;99.90;;;;;;5072885;28;20211;-69
2022/04/01 09:43:03;;;;;;;11.93;2.60;;;17.20;99.90;;;;;;5074847;28;20180;-69
2022/04/01 09:45:37;;;;;;;8.10;1.70;;;17.10;99.90;;;;;;5076623;28;20633;-69
2022/04/01 09:48:09;;;;;;;7.87;1.40;;;17.10;99.90;;;;;;5076610;28;20191;-68
2022/04/01 09:50:43;;;;;;;7.60;1.43;;;17.10;99.90;;;;;;5075627;28;20187;-68
2022/04/01 09:53:19;;;;;;;10.67;1.73;;;17.10;99.90;;;;;;5076509;28;20330;-69
2022/04/01 09:55:49;;;;;;;7.43;1.80;;;17.10;99.90;;;;;;5076648;28;20207;-69
2022/04/01 09:58:18;;;;;;;7.43;2.33;;;17.10;99.90;;;;;;5076496;28;20622;-69
2022/04/01 10:00:47;;;;;;;9.63;1.63;;;17.10;99.90;;;;;;5076537;28;20223;-69
2022/04/01 10:03:15;;;;;;;4.70;1.30;;;17.10;99.90;;;;;;5076707;28;20211;-68
2022/04/01 10:05:43;;;;;;;6.07;1.93;;;17.10;99.90;;;;;;5076474;28;20179;-69
2022/04/01 10:08:12;;;;;;;6.17;1.80;;;17.10;99.90;;;;;;5076611;28;20550;-68
2022/04/01 10:10:41;;;;;;;10.57;1.93;;;17.10;99.90;;;;;;5076643;28;20176;-68
2022/04/01 10:13:31;;;;;;;7.60;2.63;;;17.20;99.90;;;;;;5076155;28;20301;-68
2022/04/01 10:16:01;;;;;;;6.20;2.07;;;17.20;99.90;;;;;;5076440;28;20277;-69
2022/04/01 10:18:31;;;;;;;6.97;2.17;;;17.10;99.90;;;;;;5076166;28;20513;-69
2022/04/01 10:21:01;;;;;;;6.03;2.37;;;17.10;99.90;;;;;;5076177;28;20317;-67
2022/04/01 10:23:28;;;;;;;5.87;1.67;;;17.10;99.90;;;;;;5076263;28;20365;-68
2022/04/01 10:26:02;;;;;;;5.90;1.57;;;17.10;99.90;;;;;;5076080;28;20179;-67
2022/04/01 10:28:30;;;;;;;6.70;1.43;;;17.10;99.90;;;;;;5072972;28;20641;-69
2022/04/01 10:31:00;;;;;;;10.47;1.87;;;17.00;99.90;;;;;;5075623;28;20179;-69
2022/04/01 10:33:35;;;;;;;7.23;1.73;;;17.00;99.90;;;;;;5075596;28;20176;-70
2022/04/01 10:36:23;;;;;;;7.07;1.43;;;17.00;99.90;;;;;;5076245;28;20269;-68
2022/04/01 10:39:00;;;;;;;10.20;1.63;;;16.80;99.90;;;;;;5075817;28;20176;-69
2022/04/01 10:41:28;;;;;;;5.60;1.10;;;16.80;99.90;;;;;;5076026;28;20184;-68
2022/04/01 10:43:55;;;;;;;6.40;1.90;;;16.80;99.90;;;;;;5075770;28;20253;-68
2022/04/01 10:46:23;;;;;;;5.13;1.43;;;16.80;99.90;;;;;;5075354;28;20534;-68
2022/04/01 10:52:05;;;;;;;8.37;1.77;;;16.70;99.90;;;;;;5075621;28;20373;-68
2022/04/01 10:54:33;;;;;;;8.90;1.93;;;16.70;99.90;;;;;;5074348;28;20668;-68
2022/04/01 10:57:08;;;;;;;5.73;1.27;;;16.60;99.90;;;;;;5075619;28;20213;-68
2022/04/01 10:59:44;;;;;;;9.93;2.03;;;16.70;99.90;;;;;;5075434;28;20202;-68
2022/04/01 11:02:20;;;;;;;7.60;1.40;;;16.70;99.90;;;;;;5075732;28;20175;-68
2022/04/01 11:04:50;;;;;;;4.67;1.60;;;16.70;99.90;;;;;;5074973;28;20191;-68
2022/04/01 11:07:23;;;;;;;8.83;1.50;;;16.70;99.90;;;;;;5075498;28;20187;-68
2022/04/01 11:10:00;;;;;;;8.50;1.67;;;16.60;99.90;;;;;;5074104;28;20276;-68
2022/04/01 11:12:50;;;;;;;6.33;1.60;;;16.70;99.90;;;;;;5075643;28;20192;-68
2022/04/01 11:15:28;;;;;;;5.83;1.50;;;16.60;99.90;;;;;;5075979;28;20228;-68
2022/04/01 11:17:58;;;;;;;8.10;1.93;;;16.50;99.90;;;;;;5074944;28;20247;-69
2022/04/01 11:20:32;;;;;;;9.27;1.87;;;16.50;99.90;;;;;;5073907;28;20299;-68
2022/04/01 11:23:03;;;;;;;9.43;1.77;;;16.50;99.90;;;;;;5075599;28;20209;-68
2022/04/01 11:25:33;;;;;;;12.83;1.83;;;16.40;99.90;;;;;;5075043;28;20183;-68
2022/04/01 11:28:02;;;;;;;9.27;2.07;;;16.30;99.90;;;;;;5074981;28;20527;-68
2022/04/01 11:30:34;;;;;;;8.60;1.60;;;16.30;99.90;;;;;;5075507;28;20182;-67
2022/04/01 11:33:11;;;;;;;6.53;1.87;;;16.30;99.90;;;;;;5072519;28;20191;-67
2022/04/01 11:35:41;;;;;;;8.07;1.73;;;16.40;99.90;;;;;;5074900;28;20175;-67
2022/04/01 11:38:15;;;;;;;6.70;1.43;;;16.50;99.90;;;;;;5074875;28;20187;-68
2022/04/01 11:40:43;;;;;;;11.13;1.83;;;16.50;99.90;;;;;;5075210;28;20206;-68
2022/04/01 11:43:13;;;;;;;8.63;2.13;;;16.50;99.90;;;;;;5075431;28;20513;-68
2022/04/01 11:45:59;;;;;;;8.83;2.43;;;16.50;99.90;;;;;;5074918;28;20179;-68
2022/04/01 11:48:57;;;;;;;7.53;1.63;;;16.60;99.90;;;;;;5076228;28;20183;-68
2022/04/01 11:51:26;;;;;;;6.63;1.83;;;16.70;99.90;;;;;;5070240;28;20673;-68
2022/04/01 11:53:56;;;;;;;9.83;2.00;;;16.70;99.90;;;;;;5075553;28;20188;-69
2022/04/01 11:56:27;;;;;;;6.47;1.93;;;16.70;99.90;;;;;;5080585;28;20183;-69
2022/04/01 11:59:07;;;;;;;9.43;2.13;;;16.80;99.90;;;;;;5073278;28;20168;-69
2022/04/01 12:02:01;;;;;;;9.20;1.87;;;16.80;99.90;;;;;;5074321;28;20211;-68
2022/04/01 12:04:33;;;;;;;7.77;2.00;;;16.70;99.90;;;;;;5074167;28;20180;-68
2022/04/01 12:09:56;;;;;;;6.50;1.80;;;16.60;99.90;;;;;;5074399;28;20694;-68
2022/04/01 12:12:25;;;;;;;5.03;1.73;;;16.60;99.90;;;;;;5074063;28;20641;-67
2022/04/01 12:14:57;;;;;;;5.33;1.80;;;16.70;99.90;;;;;;5073842;28;20242;-67
2022/04/01 12:17:24;;;;;;;4.80;1.50;;;16.70;99.90;;;;;;5074083;28;20187;-68
2022/04/01 12:20:09;;;;;;;11.73;2.43;;;16.60;99.90;;;;;;5073915;28;20253;-68
2022/04/01 12:22:40;;;;;;;10.97;1.97;;;16.60;99.90;;;;;;5073819;28;20214;-68
2022/04/01 12:25:08;;;;;;;5.83;1.30;;;16.60;99.90;;;;;;5073740;28;20187;-68
2022/04/01 12:27:56;;;;;;;4.97;1.23;;;16.60;99.90;;;;;;5073073;28;20266;-68
2022/04/01 12:30:40;;;;;;;15.33;2.33;;;16.60;99.90;;;;;;5073584;28;20619;-69
2022/04/01 12:33:30;;;;;;;6.60;1.47;;;16.60;99.90;;;;;;5072778;28;20186;-69
2022/04/01 12:36:06;;;;;;;8.07;1.87;;;16.50;99.90;;;;;;5072904;28;20192;-69
2022/04/01 12:38:38;;;;;;;7.30;1.33;;;16.50;99.90;;;;;;5073166;28;20300;-68
2022/04/01 12:41:16;;;;;;;8.23;1.40;;;16.50;99.90;;;;;;5073379;28;20219;-69
2022/04/01 12:43:56;;;;;;;3.90;1.63;;;16.50;99.90;;;;;;5073135;28;20189;-68
2022/04/01 12:46:34;;;;;;;7.80;1.53;;;16.50;99.90;;;;;;5081682;28;20209;-69
2022/04/01 12:49:15;;;;;;;5.40;1.27;;;16.50;99.90;;;;;;5084266;28;20207;-69
2022/04/01 12:52:20;;;;;;;4.13;1.50;;;16.50;99.90;;;;;;5086167;28;20184;-68
2022/04/01 12:55:00;;;;;;;6.83;1.60;;;16.40;99.90;;;;;;5086669;28;20182;-69
2022/04/01 12:57:27;;;;;;;3.30;1.30;;;16.40;99.90;;;;;;5085741;28;20198;-68
2022/04/01 12:59:56;;;;;;;6.83;2.70;;;16.50;99.90;;;;;;5083741;28;20246;-68
2022/04/01 13:02:25;;;;;;;5.83;1.43;;;16.50;99.90;;;;;;5077256;28;20184;-68
2022/04/01 13:04:55;;;;;;;3.90;1.60;;;16.50;99.90;;;;;;5070048;28;20187;-68
2022/04/01 13:07:32;;;;;;;6.20;1.50;;;16.50;99.90;;;;;;5073781;28;20188;-68
2022/04/01 13:10:15;;;;;;;7.00;1.53;;;16.50;99.90;;;;;;5074196;28;20168;-68
2022/04/01 13:12:44;;;;;;;4.47;1.13;;;16.50;99.90;;;;;;5073506;28;20203;-69
2022/04/01 13:15:17;;;;;;;8.73;1.47;;;16.50;99.90;;;;;;5073455;28;20255;-68
2022/04/01 13:17:50;;;;;;;4.67;1.70;;;16.50;99.90;;;;;;5053124;28;20213;-69